Flight Track Log - Related Links

Times and Time Zones

All times are in EDT time to prevent confusion due to time zone crossing. See the EGF2748 flight status page for this flight to view local times or setup timezone preferences in your user account.

Time Position Orientation Groundspeed Altitude Reporting Facility
EDT Latitude Longitude Course Direction KTS MPH feet Rate Location/Type
Thu 06:47:52 PM 30.4094 -87.1772 169° South 214 246 1,800  Level Jacksonville Center
Thu 06:48:53 PM 30.3411 -87.1644 171° South 255 293 4,000 2,139 Climbing Jacksonville Center
Thu 06:49:00 PM 30.5333 -87.4993 270° West  Level FlightAware Approximate
Thu 06:49:47 PM 30.2764 -87.1642 180° South 277 319 5,900  Level Jacksonville Center
Thu 06:50:00 PM 30.5567 -87.6050 285° West  Level FlightAware Approximate
Thu 06:51:00 PM 30.5779 -87.7115 282° West  Level FlightAware Approximate
Thu 06:51:06 PM 30.2917 -87.2681 280° West 265 305 8,900  Level Jacksonville Center
Thu 06:52:00 PM 30.5973 -87.8184 282° West  Level FlightAware Approximate
Thu 06:53:00 PM 30.3653 -87.3903 305° West 271 312 12,100  Level Houston Center
Thu 06:54:02 PM 30.4214 -87.4617 312° West 292 336 13,500 1,210 Climbing Houston Center
Thu 06:55:04 PM 30.4806 -87.5378 312° West 311 358 14,600 1,210 Climbing Houston Center
Thu 06:56:06 PM 30.5561 -87.6344 312° West 333 383 16,000 1,258 Climbing Houston Center
Thu 06:57:08 PM 30.6222 -87.7175 313° West 345 397 17,200 1,113 Climbing Houston Center
Thu 06:58:10 PM 30.6883 -87.8025 312° West 353 406 18,300 1,065 Climbing Houston Center
Thu 06:59:12 PM 30.7567 -87.8872 313° West 359 413 19,400 1,065 Climbing Houston Center
Thu 07:00:14 PM 30.8256 -87.9731 313° West 361 415 20,500 1,113 Climbing Houston Center
Thu 07:01:16 PM 30.8875 -88.0644 308° West 363 418 21,700 1,161 Climbing Houston Center
Thu 07:02:18 PM 30.9478 -88.1894 299° West 366 421 22,900 919 Climbing Houston Center
Thu 07:03:20 PM 30.9914 -88.2797 299° West 379 436 23,600 871 Climbing Houston Center
Thu 07:04:22 PM 31.0519 -88.3944 302° West 371 427 24,700 968 Climbing Houston Center
Thu 07:05:24 PM 31.0961 -88.5019 296° West 368 423 25,600 968 Climbing Houston Center
Thu 07:06:26 PM 31.1425 -88.6239 294° West 370 426 26,700 1,016 Climbing Houston Center
Thu 07:07:28 PM 31.1856 -88.7336 295° West 372 428 27,700 919 Climbing Houston Center
Thu 07:08:30 PM 31.2283 -88.8439 294° West 372 428 28,600 871 Climbing Houston Center
Thu 07:09:32 PM 31.2611 -88.9575 289° West 375 432 29,500 677 Climbing Houston Center
Thu 07:10:34 PM 31.2769 -89.1025 277° West 378 435 30,000 726 Climbing Houston Center
Thu 07:11:36 PM 31.2922 -89.2308 278° West 397 457 31,000 1,113 Climbing Houston Center
Thu 07:12:38 PM 31.3078 -89.3547 278° West 390 449 32,300 1,104 Climbing Houston Center
Thu 07:13:41 PM 31.3211 -89.4731 278° West 372 428 33,300 912 Climbing Houston Center
Thu 07:14:43 PM 31.3353 -89.6036 277° West 378 435 34,200 919 Climbing Houston Center
Thu 07:15:45 PM 31.3500 -89.7253 278° West 382 440 35,200 823 Climbing Houston Center
Thu 07:16:47 PM 31.3639 -89.8472 278° West 381 438 35,900 387 Climbing Houston Center
Thu 07:17:49 PM 31.3778 -89.9706 278° West 387 445 36,000 48 Climbing Houston Center
Thu 07:18:51 PM 31.3950 -90.1269 277° West 406 467 36,000  Level Houston Center
Thu 07:19:52 PM 31.4100 -90.2578 278° West 410 472 36,000  Level Houston Center
Thu 07:20:54 PM 31.4242 -90.3889 277° West 411 473 36,000  Level Houston Center
Thu 07:21:56 PM 31.4378 -90.5194 277° West 408 470 36,000 339 Level Houston Center
Thu 07:22:58 PM 31.4522 -90.6483 278° West 403 464 36,700 484 Climbing Houston Center
Thu 07:24:00 PM 31.4658 -90.7747 277° West 396 456 37,000 145 Climbing Houston Center
Thu 07:25:02 PM 31.4825 -90.9283 277° West 400 460 37,000  Level Houston Center
Thu 07:26:04 PM 31.4961 -91.0567 277° West 400 460 37,000  Level Houston Center
Thu 07:27:06 PM 31.5089 -91.1914 276° West 395 455 37,000  Level Houston Center
Thu 07:28:08 PM 31.5231 -91.3169 278° West 390 449 37,000  Level Houston Center
Thu 07:29:10 PM 31.5344 -91.4411 276° West 384 442 37,000  Level Houston Center
Thu 07:30:11 PM 31.5478 -91.5644 277° West 382 440 37,000  Level Houston Center
Thu 07:31:13 PM 31.5592 -91.6867 276° West 379 436 37,000  Level Houston Center
Thu 07:32:15 PM 31.5728 -91.8319 276° West 375 432 37,000  Level Houston Center
Thu 07:33:17 PM 31.5847 -91.9514 277° West 371 427 37,000  Level Houston Center
Thu 07:34:19 PM 31.5953 -92.0747 276° West 368 423 37,000  Level Houston Center
Thu 07:35:20 PM 31.6072 -92.1936 277° West 368 423 37,000  Level Houston Center
Thu 07:36:22 PM 31.6181 -92.3139 276° West 371 427 37,000 -290 Level Houston Center
Thu 07:37:24 PM 31.6289 -92.4356 276° West 375 432 36,400 -484 Descending Houston Center
Thu 07:38:26 PM 31.6414 -92.5606 277° West 386 444 36,000 -194 Descending Houston Center
Thu 07:39:28 PM 31.6533 -92.6872 276° West 391 450 36,000  Level Houston Center
Thu 07:40:29 PM 31.6669 -92.8450 276° West 405 466 36,000  Level Houston Center
Thu 07:41:31 PM 31.6781 -92.9789 276° West 412 474 36,000  Level Houston Center
Thu 07:42:33 PM 31.6911 -93.1131 277° West 416 479 36,000  Level Houston Center
Thu 07:43:35 PM 31.7028 -93.2467 276° West 412 474 36,000  Level Houston Center
Thu 07:44:37 PM 31.7142 -93.3967 275° West 411 473 36,000 -244 Level Houston Center
Thu 07:45:38 PM 31.7256 -93.5269 276° West 407 468 35,500 -780 Descending Houston Center
Thu 07:46:40 PM 31.7375 -93.6583 276° West 407 468 34,400 -726 Descending Houston Center
Thu 07:47:42 PM 31.7489 -93.7900 276° West 406 467 34,000 -194 Descending Houston Center
Thu 07:48:44 PM 31.7683 -93.9169 280° West 401 461 34,000  Level Houston Center
Thu 07:49:46 PM 31.8008 -94.0728 284° West 405 466 34,000  Level Houston Center
Thu 07:50:48 PM 31.8264 -94.2036 283° West 410 472 34,000  Level Houston Center
Thu 07:51:50 PM 31.8511 -94.3344 283° West 416 479 34,000  Level Houston Center
Thu 07:52:52 PM 31.8769 -94.4667 283° West 417 480 34,000  Level Houston Center
Thu 07:53:25 PM 31.8950 -94.5531 284° West 417 480 34,000  Level Fort Worth Center
Thu 07:54:25 PM 31.9189 -94.6892 282° West 422 486 34,000  Level Fort Worth Center
Thu 07:55:25 PM 31.9444 -94.8208 283° West 422 486 34,000  Level Fort Worth Center
Thu 07:56:25 PM 31.9703 -94.9547 283° West 422 486 34,000  Level Fort Worth Center
Thu 07:57:25 PM 31.9936 -95.0839 282° West 422 486 34,000  Level Fort Worth Center
Thu 07:58:25 PM 32.0250 -95.2106 286° West 417 480 34,000  Level Fort Worth Center
Thu 07:59:25 PM 32.0628 -95.3369 289° West 410 472 34,000  Level Fort Worth Center
Thu 08:00:25 PM 32.0978 -95.4514 290° West 415 478 34,000  Level Fort Worth Center
Thu 08:01:25 PM 32.1333 -95.5783 288° West 410 472 34,000  Level Fort Worth Center
Thu 08:02:25 PM 32.1703 -95.6953 290° West 399 459 34,000 -200 Level Fort Worth Center
Thu 08:03:25 PM 32.2033 -95.8200 287° West 399 459 33,600 -1,700 Descending Fort Worth Center
Thu 08:04:25 PM 32.2403 -95.9494 289° West 406 467 30,600 -3,350 Descending Fort Worth Center
Thu 08:05:25 PM 32.2794 -96.0767 290° West 406 467 26,900 -3,850 Descending Fort Worth Center
Thu 08:06:25 PM 32.3183 -96.2211 288° West 417 480 22,900 -3,900 Descending Fort Worth Center
Thu 08:07:25 PM 32.3550 -96.3508 289° West 418 481 19,100 -3,300 Descending Fort Worth Center
Thu 08:08:25 PM 32.3978 -96.4736 292° West 412 474 16,300 -3,000 Descending Fort Worth Center
Thu 08:09:25 PM 32.4736 -96.5589 317° Northwest 384 442 13,100 -2,650 Descending Fort Worth Center
Thu 08:10:25 PM 32.5450 -96.6469 314° West 378 435 11,000 -1,050 Descending Fort Worth Center
Thu 08:11:25 PM 32.6186 -96.7350 315° West 372 428 11,000  Level Fort Worth Center
Thu 08:12:25 PM 32.6942 -96.8208 316° Northwest 372 428 11,000  Level Fort Worth Center
Thu 08:13:25 PM 32.7508 -96.8897 314° West 350 403 11,000 -450 Level Fort Worth Center
Thu 08:14:25 PM 32.8219 -96.9042 350° North 298 343 10,100 -1,200 Descending Fort Worth Center
Thu 08:15:25 PM 32.8950 -96.9039 360° North 259 298 8,600 -1,450 Descending Fort Worth Center
Thu 08:16:25 PM 32.9681 -96.9033 360° North 259 298 7,200 -800 Descending Fort Worth Center
Thu 08:17:25 PM 33.0369 -96.9053 359° North 252 290 7,000 -550 Descending Fort Worth Center
Thu 08:18:25 PM 33.1164 -96.9125 356° North 252 290 6,100 -950 Descending Fort Worth Center
Thu 08:19:25 PM 33.1664 -96.9469 330° Northwest 245 282 5,100 -1,200 Descending Fort Worth Center
Thu 08:20:25 PM 33.1647 -97.0264 269° West 194 223 3,700 -1,050 Descending Fort Worth Center
Thu 08:21:25 PM 33.1125 -97.0289 182° South 123 142 3,000 -700 Descending Fort Worth Center

Login

Don't have an account? Register now (free) for customized features, flight alerts, and more!